sensor_id;sensor_type;location;lat;lon;timestamp;pressure;altitude;pressure_sealevel;temperature;humidity
19576;BME280;41589;51.196;7.074;2023-04-28T00:00:13;98705.41;;;13.76;41.86
19576;BME280;41589;51.196;7.074;2023-04-28T00:05:13;98691.97;;;13.71;42.47
19576;BME280;41589;51.196;7.074;2023-04-28T00:10:14;98691.91;;;13.66;42.78
19576;BME280;41589;51.196;7.074;2023-04-28T00:15:14;98685.25;;;13.69;43.30
19576;BME280;41589;51.196;7.074;2023-04-28T00:20:15;98667.06;;;13.55;43.97
19576;BME280;41589;51.196;7.074;2023-04-28T00:25:15;98670.94;;;13.57;44.38
19576;BME280;41589;51.196;7.074;2023-04-28T00:30:16;98657.03;;;13.54;44.62
19576;BME280;41589;51.196;7.074;2023-04-28T00:35:17;98642.03;;;13.48;44.99
19576;BME280;41589;51.196;7.074;2023-04-28T00:40:17;98643.09;;;13.50;44.56
19576;BME280;41589;51.196;7.074;2023-04-28T00:45:17;98636.00;;;13.40;44.70
19576;BME280;41589;51.196;7.074;2023-04-28T00:50:18;98631.91;;;13.41;44.99
19576;BME280;41589;51.196;7.074;2023-04-28T00:55:20;98629.81;;;13.36;44.94
19576;BME280;41589;51.196;7.074;2023-04-28T01:00:20;98621.22;;;13.30;45.86
19576;BME280;41589;51.196;7.074;2023-04-28T01:05:24;98619.69;;;13.29;46.03
19576;BME280;41589;51.196;7.074;2023-04-28T01:10:24;98620.75;;;13.32;46.75
19576;BME280;41589;51.196;7.074;2023-04-28T01:15:25;98618.22;;;13.34;46.95
19576;BME280;41589;51.196;7.074;2023-04-28T01:20:28;98619.69;;;13.29;47.28
19576;BME280;41589;51.196;7.074;2023-04-28T01:25:28;98616.06;;;13.29;47.58
19576;BME280;41589;51.196;7.074;2023-04-28T01:30:28;98617.28;;;13.22;48.12
19576;BME280;41589;51.196;7.074;2023-04-28T01:35:29;98623.47;;;13.06;48.86
19576;BME280;41589;51.196;7.074;2023-04-28T01:40:29;98612.28;;;12.97;49.35
19576;BME280;41589;51.196;7.074;2023-04-28T01:45:31;98619.44;;;12.92;49.84
19576;BME280;41589;51.196;7.074;2023-04-28T01:50:31;98620.72;;;12.77;50.88
19576;BME280;41589;51.196;7.074;2023-04-28T01:55:31;98619.09;;;12.70;51.73
19576;BME280;41589;51.196;7.074;2023-04-28T02:00:32;98609.47;;;12.62;51.77
19576;BME280;41589;51.196;7.074;2023-04-28T02:05:33;98621.94;;;12.55;52.40
19576;BME280;41589;51.196;7.074;2023-04-28T02:10:33;98620.94;;;12.43;53.25
19576;BME280;41589;51.196;7.074;2023-04-28T02:15:38;98600.59;;;12.39;54.02
19576;BME280;41589;51.196;7.074;2023-04-28T02:20:39;98609.94;;;12.31;54.29
19576;BME280;41589;51.196;7.074;2023-04-28T02:25:41;98603.22;;;12.13;55.19
19576;BME280;41589;51.196;7.074;2023-04-28T02:30:46;98598.56;;;12.10;55.70
19576;BME280;41589;51.196;7.074;2023-04-28T02:35:46;98595.94;;;12.07;56.13
19576;BME280;41589;51.196;7.074;2023-04-28T02:40:46;98585.41;;;11.93;57.67
19576;BME280;41589;51.196;7.074;2023-04-28T02:45:47;98584.16;;;11.79;58.76
19576;BME280;41589;51.196;7.074;2023-04-28T02:50:47;98585.41;;;11.78;60.35
19576;BME280;41589;51.196;7.074;2023-04-28T02:55:48;98588.81;;;11.67;62.17
19576;BME280;41589;51.196;7.074;2023-04-28T03:00:48;98576.03;;;11.57;64.69
19576;BME280;41589;51.196;7.074;2023-04-28T03:05:50;98587.09;;;11.46;66.54
19576;BME280;41589;51.196;7.074;2023-04-28T03:10:50;98581.94;;;11.44;67.37
19576;BME280;41589;51.196;7.074;2023-04-28T03:15:51;98583.31;;;11.49;68.56
19576;BME280;41589;51.196;7.074;2023-04-28T03:20:51;98575.22;;;11.42;69.57
19576;BME280;41589;51.196;7.074;2023-04-28T03:25:53;98554.63;;;11.36;71.47
19576;BME280;41589;51.196;7.074;2023-04-28T03:30:54;98556.53;;;11.29;73.01
19576;BME280;41589;51.196;7.074;2023-04-28T03:35:55;98543.59;;;11.23;74.58
19576;BME280;41589;51.196;7.074;2023-04-28T03:40:55;98536.63;;;11.09;77.08
19576;BME280;41589;51.196;7.074;2023-04-28T03:46:14;98535.47;;;10.92;80.22
19576;BME280;41589;51.196;7.074;2023-04-28T03:51:15;98525.47;;;10.91;83.25
19576;BME280;41589;51.196;7.074;2023-04-28T03:56:15;98524.34;;;10.74;85.94
19576;BME280;41589;51.196;7.074;2023-04-28T04:01:16;98515.81;;;10.59;88.24
19576;BME280;41589;51.196;7.074;2023-04-28T04:06:16;98494.81;;;10.45;91.01
19576;BME280;41589;51.196;7.074;2023-04-28T04:11:17;98489.13;;;10.54;93.29
19576;BME280;41589;51.196;7.074;2023-04-28T04:16:17;98466.97;;;10.47;97.54
19576;BME280;41589;51.196;7.074;2023-04-28T04:21:17;98470.50;;;10.33;100.00
19576;BME280;41589;51.196;7.074;2023-04-28T04:26:19;98464.56;;;10.31;100.00
19576;BME280;41589;51.196;7.074;2023-04-28T04:31:23;98459.88;;;10.28;100.00
19576;BME280;41589;51.196;7.074;2023-04-28T04:36:24;98455.50;;;10.27;100.00
19576;BME280;41589;51.196;7.074;2023-04-28T04:41:25;98471.50;;;10.21;100.00
19576;BME280;41589;51.196;7.074;2023-04-28T04:46:38;98473.97;;;10.19;100.00
19576;BME280;41589;51.196;7.074;2023-04-28T04:51:39;98471.13;;;10.28;100.00
19576;BME280;41589;51.196;7.074;2023-04-28T04:56:40;98473.00;;;10.31;100.00
19576;BME280;41589;51.196;7.074;2023-04-28T05:01:42;98468.94;;;10.32;100.00
19576;BME280;41589;51.196;7.074;2023-04-28T05:06:43;98459.88;;;10.28;100.00
19576;BME280;41589;51.196;7.074;2023-04-28T05:11:45;98450.06;;;10.23;100.00
19576;BME280;41589;51.196;7.074;2023-04-28T05:16:45;98453.06;;;10.20;100.00
19576;BME280;41589;51.196;7.074;2023-04-28T05:21:50;98456.00;;;10.25;100.00
19576;BME280;41589;51.196;7.074;2023-04-28T05:26:53;98443.03;;;10.19;100.00
19576;BME280;41589;51.196;7.074;2023-04-28T05:31:54;98443.72;;;10.13;100.00
19576;BME280;41589;51.196;7.074;2023-04-28T05:36:56;98443.03;;;10.19;100.00
19576;BME280;41589;51.196;7.074;2023-04-28T05:42:02;98446.63;;;10.19;100.00
19576;BME280;41589;51.196;7.074;2023-04-28T05:47:03;98458.28;;;10.36;100.00
19576;BME280;41589;51.196;7.074;2023-04-28T05:52:06;98445.41;;;10.44;100.00
19576;BME280;41589;51.196;7.074;2023-04-28T05:57:06;98446.47;;;10.70;100.00
19576;BME280;41589;51.196;7.074;2023-04-28T06:02:07;98439.31;;;10.69;100.00
19576;BME280;41589;51.196;7.074;2023-04-28T06:07:10;98431.41;;;10.83;100.00
19576;BME280;41589;51.196;7.074;2023-04-28T06:12:11;98429.03;;;10.81;100.00
19576;BME280;41589;51.196;7.074;2023-04-28T06:17:13;98427.16;;;11.02;100.00
19576;BME280;41589;51.196;7.074;2023-04-28T06:22:14;98427.84;;;11.12;100.00
19576;BME280;41589;51.196;7.074;2023-04-28T06:27:14;98419.47;;;11.41;100.00
19576;BME280;41589;51.196;7.074;2023-04-28T06:32:14;98413.72;;;11.50;100.00
19576;BME280;41589;51.196;7.074;2023-04-28T06:37:15;98415.56;;;11.39;100.00
19576;BME280;41589;51.196;7.074;2023-04-28T06:42:16;98409.16;;;11.38;100.00
19576;BME280;41589;51.196;7.074;2023-04-28T06:47:24;98415.34;;;11.72;100.00
19576;BME280;41589;51.196;7.074;2023-04-28T06:52:25;98420.78;;;11.75;100.00
19576;BME280;41589;51.196;7.074;2023-04-28T06:57:27;98432.94;;;11.81;100.00
19576;BME280;41589;51.196;7.074;2023-04-28T07:02:28;98430.91;;;11.82;100.00
19576;BME280;41589;51.196;7.074;2023-04-28T07:07:28;98425.25;;;11.82;100.00
19576;BME280;41589;51.196;7.074;2023-04-28T07:12:29;98416.41;;;11.89;100.00
19576;BME280;41589;51.196;7.074;2023-04-28T07:17:29;98432.63;;;12.09;100.00
19576;BME280;41589;51.196;7.074;2023-04-28T07:22:30;98422.47;;;12.17;100.00
19576;BME280;41589;51.196;7.074;2023-04-28T07:27:30;98432.50;;;12.53;100.00
19576;BME280;41589;51.196;7.074;2023-04-28T07:32:31;98434.06;;;12.54;100.00
19576;BME280;41589;51.196;7.074;2023-04-28T07:37:32;98435.81;;;12.52;100.00
19576;BME280;41589;51.196;7.074;2023-04-28T07:42:32;98433.69;;;12.47;100.00
19576;BME280;41589;51.196;7.074;2023-04-28T07:47:33;98428.13;;;12.72;100.00
19576;BME280;41589;51.196;7.074;2023-04-28T07:52:34;98440.41;;;12.90;100.00
19576;BME280;41589;51.196;7.074;2023-04-28T07:57:34;98438.94;;;12.94;100.00
19576;BME280;41589;51.196;7.074;2023-04-28T08:02:35;98431.28;;;13.00;100.00
19576;BME280;41589;51.196;7.074;2023-04-28T08:07:35;98437.50;;;13.30;100.00
19576;BME280;41589;51.196;7.074;2023-04-28T08:12:36;98435.31;;;13.40;100.00
19576;BME280;41589;51.196;7.074;2023-04-28T08:17:37;98434.22;;;13.32;100.00
19576;BME280;41589;51.196;7.074;2023-04-28T08:22:38;98432.44;;;13.61;100.00
19576;BME280;41589;51.196;7.074;2023-04-28T08:27:38;98434.69;;;13.56;100.00
19576;BME280;41589;51.196;7.074;2023-04-28T08:32:39;98436.34;;;13.63;100.00
19576;BME280;41589;51.196;7.074;2023-04-28T08:37:40;98437.31;;;13.86;100.00
19576;BME280;41589;51.196;7.074;2023-04-28T08:42:40;98426.06;;;13.97;100.00
19576;BME280;41589;51.196;7.074;2023-04-28T08:47:41;98426.34;;;13.99;100.00
19576;BME280;41589;51.196;7.074;2023-04-28T08:52:45;98424.78;;;14.35;100.00
19576;BME280;41589;51.196;7.074;2023-04-28T08:57:49;98432.66;;;14.63;100.00
19576;BME280;41589;51.196;7.074;2023-04-28T09:02:53;98436.63;;;14.82;100.00
19576;BME280;41589;51.196;7.074;2023-04-28T09:07:53;98441.28;;;14.85;100.00
19576;BME280;41589;51.196;7.074;2023-04-28T09:12:54;98437.38;;;14.71;100.00
19576;BME280;41589;51.196;7.074;2023-04-28T09:17:55;98433.75;;;14.71;100.00
19576;BME280;41589;51.196;7.074;2023-04-28T09:23:14;98439.50;;;14.45;100.00
19576;BME280;41589;51.196;7.074;2023-04-28T09:28:20;98439.16;;;14.32;100.00
19576;BME280;41589;51.196;7.074;2023-04-28T09:33:21;98433.03;;;14.39;100.00
19576;BME280;41589;51.196;7.074;2023-04-28T09:38:22;98427.72;;;14.52;100.00
19576;BME280;41589;51.196;7.074;2023-04-28T09:43:24;98430.53;;;14.52;100.00
19576;BME280;41589;51.196;7.074;2023-04-28T09:48:33;98435.47;;;14.57;100.00
19576;BME280;41589;51.196;7.074;2023-04-28T09:53:34;98430.66;;;14.69;100.00
19576;BME280;41589;51.196;7.074;2023-04-28T09:58:39;98425.25;;;14.71;100.00
19576;BME280;41589;51.196;7.074;2023-04-28T10:03:40;98422.16;;;14.69;100.00
19576;BME280;41589;51.196;7.074;2023-04-28T10:08:42;98417.06;;;14.84;100.00
19576;BME280;41589;51.196;7.074;2023-04-28T10:13:42;98411.97;;;14.94;100.00
19576;BME280;41589;51.196;7.074;2023-04-28T10:18:44;98421.75;;;14.93;100.00
19576;BME280;41589;51.196;7.074;2023-04-28T10:29:36;98422.09;;;14.58;100.00
19576;BME280;41589;51.196;7.074;2023-04-28T10:34:37;98424.81;;;14.41;100.00
19576;BME280;41589;51.196;7.074;2023-04-28T10:39:37;98429.50;;;14.50;100.00
19576;BME280;41589;51.196;7.074;2023-04-28T10:44:41;98423.84;;;14.55;100.00
19576;BME280;41589;51.196;7.074;2023-04-28T10:55:29;98429.38;;;14.76;100.00
19576;BME280;41589;51.196;7.074;2023-04-28T11:00:37;98434.38;;;14.92;100.00
19576;BME280;41589;51.196;7.074;2023-04-28T11:11:19;98420.09;;;14.69;100.00
19576;BME280;41589;51.196;7.074;2023-04-28T11:16:22;98416.59;;;14.91;100.00
19576;BME280;41589;51.196;7.074;2023-04-28T11:21:24;98419.22;;;15.06;100.00
19576;BME280;41589;51.196;7.074;2023-04-28T11:26:27;98407.09;;;15.06;100.00
19576;BME280;41589;51.196;7.074;2023-04-28T11:31:28;98401.94;;;15.04;100.00
19576;BME280;41589;51.196;7.074;2023-04-28T11:36:33;98402.00;;;15.26;100.00
19576;BME280;41589;51.196;7.074;2023-04-28T11:41:36;98408.19;;;15.30;100.00
19576;BME280;41589;51.196;7.074;2023-04-28T11:46:49;98408.41;;;15.16;100.00
19576;BME280;41589;51.196;7.074;2023-04-28T11:51:51;98406.09;;;15.14;100.00
19576;BME280;41589;51.196;7.074;2023-04-28T11:56:53;98402.28;;;15.34;100.00
19576;BME280;41589;51.196;7.074;2023-04-28T12:02:04;98400.50;;;15.53;100.00
19576;BME280;41589;51.196;7.074;2023-04-28T12:07:08;98413.41;;;15.88;100.00
19576;BME280;41589;51.196;7.074;2023-04-28T12:12:15;98416.25;;;16.05;100.00
19576;BME280;41589;51.196;7.074;2023-04-28T12:22:24;98411.09;;;16.03;100.00
19576;BME280;41589;51.196;7.074;2023-04-28T12:27:24;98408.25;;;15.98;100.00
19576;BME280;41589;51.196;7.074;2023-04-28T12:32:40;98406.66;;;16.30;100.00
19576;BME280;41589;51.196;7.074;2023-04-28T12:37:43;98407.19;;;16.12;100.00
19576;BME280;41589;51.196;7.074;2023-04-28T12:42:43;98402.94;;;16.63;100.00
19576;BME280;41589;51.196;7.074;2023-04-28T12:47:43;98387.84;;;17.43;100.00
19576;BME280;41589;51.196;7.074;2023-04-28T12:52:44;98382.25;;;17.68;100.00
19576;BME280;41589;51.196;7.074;2023-04-28T12:57:44;98389.06;;;17.53;100.00
19576;BME280;41589;51.196;7.074;2023-04-28T13:02:44;98387.91;;;17.32;100.00
19576;BME280;41589;51.196;7.074;2023-04-28T13:07:45;98386.75;;;17.11;100.00
19576;BME280;41589;51.196;7.074;2023-04-28T13:12:46;98374.25;;;17.25;100.00
19576;BME280;41589;51.196;7.074;2023-04-28T13:17:47;98375.78;;;17.26;100.00
19576;BME280;41589;51.196;7.074;2023-04-28T13:22:47;98374.34;;;17.49;100.00
19576;BME280;41589;51.196;7.074;2023-04-28T13:27:48;98363.38;;;17.65;100.00
19576;BME280;41589;51.196;7.074;2023-04-28T13:32:48;98364.31;;;17.78;100.00
19576;BME280;41589;51.196;7.074;2023-04-28T13:37:48;98349.25;;;17.83;100.00
19576;BME280;41589;51.196;7.074;2023-04-28T13:42:49;98348.84;;;17.98;100.00
19576;BME280;41589;51.196;7.074;2023-04-28T13:47:49;98340.13;;;18.39;100.00
19576;BME280;41589;51.196;7.074;2023-04-28T13:52:50;98333.03;;;18.27;100.00
19576;BME280;41589;51.196;7.074;2023-04-28T13:57:51;98342.91;;;18.21;100.00
19576;BME280;41589;51.196;7.074;2023-04-28T14:02:51;98330.00;;;17.95;100.00
19576;BME280;41589;51.196;7.074;2023-04-28T14:07:54;98311.72;;;18.34;100.00
19576;BME280;41589;51.196;7.074;2023-04-28T14:12:55;98318.16;;;18.59;100.00
19576;BME280;41589;51.196;7.074;2023-04-28T14:17:55;98318.84;;;18.46;100.00
19576;BME280;41589;51.196;7.074;2023-04-28T14:22:56;98320.22;;;18.15;100.00
19576;BME280;41589;51.196;7.074;2023-04-28T14:27:57;98334.50;;;18.34;100.00
19576;BME280;41589;51.196;7.074;2023-04-28T14:32:57;98320.56;;;18.73;100.00
19576;BME280;41589;51.196;7.074;2023-04-28T14:37:58;98324.13;;;18.80;100.00
19576;BME280;41589;51.196;7.074;2023-04-28T14:42:58;98312.63;;;18.48;100.00
19576;BME280;41589;51.196;7.074;2023-04-28T14:48:00;98323.84;;;18.15;100.00
19576;BME280;41589;51.196;7.074;2023-04-28T14:53:00;98320.53;;;18.30;100.00
19576;BME280;41589;51.196;7.074;2023-04-28T14:58:04;98322.25;;;18.39;100.00
19576;BME280;41589;51.196;7.074;2023-04-28T15:03:04;98332.19;;;18.08;100.00
19576;BME280;41589;51.196;7.074;2023-04-28T15:08:05;98334.56;;;18.04;100.00
19576;BME280;41589;51.196;7.074;2023-04-28T15:13:06;98332.13;;;17.89;100.00
19576;BME280;41589;51.196;7.074;2023-04-28T15:18:06;98321.66;;;18.03;100.00
19576;BME280;41589;51.196;7.074;2023-04-28T15:23:06;98328.34;;;18.05;100.00
19576;BME280;41589;51.196;7.074;2023-04-28T15:28:07;98331.06;;;17.92;100.00
19576;BME280;41589;51.196;7.074;2023-04-28T15:33:08;98353.78;;;17.68;100.00
19576;BME280;41589;51.196;7.074;2023-04-28T15:38:08;98355.59;;;17.71;100.00
19576;BME280;41589;51.196;7.074;2023-04-28T15:43:10;98373.78;;;17.62;100.00
19576;BME280;41589;51.196;7.074;2023-04-28T15:48:10;98375.00;;;17.67;100.00
19576;BME280;41589;51.196;7.074;2023-04-28T15:53:11;98395.38;;;17.35;100.00
19576;BME280;41589;51.196;7.074;2023-04-28T15:58:11;98402.47;;;17.17;100.00
19576;BME280;41589;51.196;7.074;2023-04-28T16:03:11;98416.03;;;16.94;100.00
19576;BME280;41589;51.196;7.074;2023-04-28T16:08:12;98422.78;;;16.86;100.00
19576;BME280;41589;51.196;7.074;2023-04-28T16:13:13;98433.94;;;16.72;100.00
19576;BME280;41589;51.196;7.074;2023-04-28T16:18:13;98437.66;;;16.28;100.00
19576;BME280;41589;51.196;7.074;2023-04-28T16:23:14;98443.59;;;16.02;100.00
19576;BME280;41589;51.196;7.074;2023-04-28T16:28:15;98446.19;;;15.95;100.00
19576;BME280;41589;51.196;7.074;2023-04-28T16:33:15;98445.91;;;15.81;100.00
19576;BME280;41589;51.196;7.074;2023-04-28T16:38:15;98454.63;;;15.61;100.00
19576;BME280;41589;51.196;7.074;2023-04-28T16:43:16;98456.97;;;15.57;100.00
19576;BME280;41589;51.196;7.074;2023-04-28T16:48:18;98458.22;;;15.50;100.00
19576;BME280;41589;51.196;7.074;2023-04-28T16:53:19;98460.25;;;15.39;100.00
19576;BME280;41589;51.196;7.074;2023-04-28T16:58:19;98477.81;;;15.43;100.00
19576;BME280;41589;51.196;7.074;2023-04-28T17:03:20;98460.56;;;15.41;100.00
19576;BME280;41589;51.196;7.074;2023-04-28T17:08:20;98469.53;;;15.39;100.00
19576;BME280;41589;51.196;7.074;2023-04-28T17:13:21;98474.41;;;15.27;100.00
19576;BME280;41589;51.196;7.074;2023-04-28T17:18:21;98474.63;;;15.18;100.00
19576;BME280;41589;51.196;7.074;2023-04-28T17:23:22;98482.91;;;15.22;100.00
19576;BME280;41589;51.196;7.074;2023-04-28T17:28:22;98486.44;;;15.06;100.00
19576;BME280;41589;51.196;7.074;2023-04-28T17:33:24;98477.44;;;15.01;100.00
19576;BME280;41589;51.196;7.074;2023-04-28T17:38:24;98482.63;;;15.14;100.00
19576;BME280;41589;51.196;7.074;2023-04-28T17:43:24;98491.59;;;15.07;100.00
19576;BME280;41589;51.196;7.074;2023-04-28T17:48:25;98493.59;;;14.90;100.00
19576;BME280;41589;51.196;7.074;2023-04-28T17:53:25;98498.25;;;14.93;100.00
19576;BME280;41589;51.196;7.074;2023-04-28T17:58:26;98502.41;;;15.03;100.00
19576;BME280;41589;51.196;7.074;2023-04-28T18:03:26;98504.94;;;14.95;100.00
19576;BME280;41589;51.196;7.074;2023-04-28T18:08:26;98511.13;;;14.94;100.00
19576;BME280;41589;51.196;7.074;2023-04-28T18:13:27;98509.53;;;14.87;100.00
19576;BME280;41589;51.196;7.074;2023-04-28T18:18:27;98520.31;;;14.78;100.00
19576;BME280;41589;51.196;7.074;2023-04-28T18:23:28;98519.88;;;14.90;100.00
19576;BME280;41589;51.196;7.074;2023-04-28T18:28:29;98532.16;;;14.76;100.00
19576;BME280;41589;51.196;7.074;2023-04-28T18:33:30;98541.84;;;14.64;100.00
19576;BME280;41589;51.196;7.074;2023-04-28T18:38:30;98545.91;;;14.57;100.00
19576;BME280;41589;51.196;7.074;2023-04-28T18:43:33;98544.59;;;14.53;100.00
19576;BME280;41589;51.196;7.074;2023-04-28T18:48:34;98553.50;;;14.40;100.00
19576;BME280;41589;51.196;7.074;2023-04-28T18:53:35;98547.47;;;14.58;100.00
19576;BME280;41589;51.196;7.074;2023-04-28T18:58:35;98546.13;;;14.54;100.00
19576;BME280;41589;51.196;7.074;2023-04-28T19:03:36;98557.00;;;14.61;100.00
19576;BME280;41589;51.196;7.074;2023-04-28T19:08:36;98561.81;;;14.49;100.00
19576;BME280;41589;51.196;7.074;2023-04-28T19:13:41;98563.28;;;14.39;100.00
19576;BME280;41589;51.196;7.074;2023-04-28T19:18:43;98559.50;;;14.48;100.00
19576;BME280;41589;51.196;7.074;2023-04-28T19:23:44;98565.38;;;14.44;100.00
19576;BME280;41589;51.196;7.074;2023-04-28T19:28:45;98563.19;;;14.28;100.00
19576;BME280;41589;51.196;7.074;2023-04-28T19:33:45;98581.72;;;14.29;100.00
19576;BME280;41589;51.196;7.074;2023-04-28T19:38:46;98576.69;;;14.44;100.00
19576;BME280;41589;51.196;7.074;2023-04-28T19:43:46;98581.81;;;14.40;100.00
19576;BME280;41589;51.196;7.074;2023-04-28T19:48:46;98589.03;;;14.41;100.00
19576;BME280;41589;51.196;7.074;2023-04-28T19:53:47;98583.97;;;14.51;100.00
19576;BME280;41589;51.196;7.074;2023-04-28T19:58:49;98589.09;;;14.47;100.00
19576;BME280;41589;51.196;7.074;2023-04-28T20:03:50;98588.78;;;14.44;100.00
19576;BME280;41589;51.196;7.074;2023-04-28T20:08:50;98583.91;;;14.45;100.00
19576;BME280;41589;51.196;7.074;2023-04-28T20:13:50;98597.53;;;14.41;100.00
19576;BME280;41589;51.196;7.074;2023-04-28T20:18:51;98591.63;;;14.44;100.00
19576;BME280;41589;51.196;7.074;2023-04-28T20:23:51;98589.31;;;14.43;100.00
19576;BME280;41589;51.196;7.074;2023-04-28T20:28:52;98600.09;;;14.39;100.00
19576;BME280;41589;51.196;7.074;2023-04-28T20:33:53;98596.47;;;14.38;100.00
19576;BME280;41589;51.196;7.074;2023-04-28T20:38:54;98598.38;;;14.21;100.00
19576;BME280;41589;51.196;7.074;2023-04-28T20:43:54;98587.59;;;14.25;100.00
19576;BME280;41589;51.196;7.074;2023-04-28T20:48:54;98592.69;;;14.15;100.00
19576;BME280;41589;51.196;7.074;2023-04-28T20:53:55;98584.72;;;14.20;100.00
19576;BME280;41589;51.196;7.074;2023-04-28T20:58:56;98581.72;;;14.03;100.00
19576;BME280;41589;51.196;7.074;2023-04-28T21:03:57;98582.41;;;13.92;100.00
19576;BME280;41589;51.196;7.074;2023-04-28T21:08:57;98582.47;;;13.98;100.00
19576;BME280;41589;51.196;7.074;2023-04-28T21:13:57;98589.13;;;13.95;100.00
19576;BME280;41589;51.196;7.074;2023-04-28T21:19:11;98591.16;;;13.94;100.00
19576;BME280;41589;51.196;7.074;2023-04-28T21:24:11;98588.41;;;13.74;100.00
19576;BME280;41589;51.196;7.074;2023-04-28T21:29:13;98591.50;;;13.76;100.00
19576;BME280;41589;51.196;7.074;2023-04-28T21:34:14;98598.84;;;13.68;100.00
19576;BME280;41589;51.196;7.074;2023-04-28T21:39:14;98590.09;;;13.66;100.00
19576;BME280;41589;51.196;7.074;2023-04-28T21:44:15;98604.75;;;13.64;100.00
19576;BME280;41589;51.196;7.074;2023-04-28T21:49:15;98605.28;;;13.68;100.00
19576;BME280;41589;51.196;7.074;2023-04-28T21:54:16;98595.88;;;13.56;100.00
19576;BME280;41589;51.196;7.074;2023-04-28T21:59:17;98596.66;;;13.57;100.00
19576;BME280;41589;51.196;7.074;2023-04-28T22:04:17;98597.97;;;13.41;100.00
19576;BME280;41589;51.196;7.074;2023-04-28T22:09:17;98597.16;;;13.55;100.00
19576;BME280;41589;51.196;7.074;2023-04-28T22:14:18;98596.38;;;13.35;100.00
19576;BME280;41589;51.196;7.074;2023-04-28T22:19:18;98602.94;;;13.46;100.00
19576;BME280;41589;51.196;7.074;2023-04-28T22:24:19;98605.00;;;13.46;100.00
19576;BME280;41589;51.196;7.074;2023-04-28T22:29:19;98603.31;;;13.34;100.00
19576;BME280;41589;51.196;7.074;2023-04-28T22:34:20;98611.47;;;13.31;100.00
19576;BME280;41589;51.196;7.074;2023-04-28T22:39:24;98610.22;;;13.33;100.00
19576;BME280;41589;51.196;7.074;2023-04-28T22:44:25;98607.75;;;13.40;100.00
19576;BME280;41589;51.196;7.074;2023-04-28T22:49:26;98620.03;;;13.37;100.00
19576;BME280;41589;51.196;7.074;2023-04-28T22:54:27;98620.41;;;13.24;100.00
19576;BME280;41589;51.196;7.074;2023-04-28T22:59:28;98619.19;;;13.31;100.00
19576;BME280;41589;51.196;7.074;2023-04-28T23:04:31;98606.53;;;13.26;100.00
19576;BME280;41589;51.196;7.074;2023-04-28T23:09:32;98613.19;;;13.23;100.00
19576;BME280;41589;51.196;7.074;2023-04-28T23:14:35;98624.69;;;13.20;100.00
19576;BME280;41589;51.196;7.074;2023-04-28T23:19:35;98621.97;;;13.11;100.00
19576;BME280;41589;51.196;7.074;2023-04-28T23:24:38;98622.97;;;13.08;100.00
19576;BME280;41589;51.196;7.074;2023-04-28T23:29:39;98639.50;;;12.94;100.00
19576;BME280;41589;51.196;7.074;2023-04-28T23:34:39;98633.84;;;12.80;100.00
19576;BME280;41589;51.196;7.074;2023-04-28T23:39:41;98650.16;;;12.70;100.00
19576;BME280;41589;51.196;7.074;2023-04-28T23:44:42;98644.22;;;12.53;100.00
19576;BME280;41589;51.196;7.074;2023-04-28T23:49:42;98653.25;;;12.42;100.00
19576;BME280;41589;51.196;7.074;2023-04-28T23:54:42;98657.63;;;12.29;100.00
19576;BME280;41589;51.196;7.074;2023-04-28T23:59:43;98666.47;;;12.36;100.00
